createdAt,value
2022-10-29T00:27:13.476Z,14.80
2022-10-29T00:32:54.225Z,14.80
2022-10-29T00:50:35.803Z,14.70
2022-10-29T00:53:02.689Z,14.70
2022-10-29T00:55:29.519Z,14.60
2022-10-29T01:09:19.455Z,14.60
2022-10-29T01:11:52.082Z,14.60
2022-10-29T01:14:46.463Z,14.50
2022-10-29T01:17:32.695Z,14.60
2022-10-29T03:08:47.657Z,13.70
2022-10-29T03:11:14.501Z,13.70
2022-10-29T03:13:41.252Z,13.70
2022-10-29T03:16:08.250Z,13.70
2022-10-29T03:18:35.084Z,13.70
2022-10-29T03:21:01.693Z,13.70
2022-10-29T03:23:28.460Z,13.70
2022-10-29T03:25:56.928Z,13.70
2022-10-29T03:28:25.207Z,13.70
2022-10-29T03:30:52.085Z,13.70
2022-10-29T03:33:18.685Z,13.70
2022-10-29T03:35:45.320Z,13.70
2022-10-29T03:38:12.069Z,13.70
2022-10-29T03:40:38.622Z,13.70
2022-10-29T03:43:05.207Z,13.70
2022-10-29T03:45:31.932Z,13.70
2022-10-29T03:47:58.703Z,13.70
2022-10-29T03:50:25.566Z,13.70
2022-10-29T03:52:52.218Z,13.70
2022-10-29T03:55:18.914Z,13.70
2022-10-29T03:57:45.507Z,13.70
2022-10-29T04:00:12.636Z,13.70
2022-10-29T04:02:39.323Z,13.70
2022-10-29T04:05:06.373Z,13.70
2022-10-29T04:07:32.997Z,13.70
2022-10-29T04:09:59.660Z,13.70
2022-10-29T04:12:26.266Z,13.70
2022-10-29T04:14:52.904Z,13.70
2022-10-29T04:17:19.929Z,13.70
2022-10-29T04:19:46.511Z,13.70
2022-10-29T04:28:41.311Z,13.70
2022-10-29T04:30:32.980Z,13.70
2022-10-29T04:33:00.420Z,13.70
2022-10-29T04:35:28.608Z,13.70
2022-10-29T04:37:55.605Z,13.70
2022-10-29T04:40:25.633Z,13.70
2022-10-29T04:42:52.210Z,13.70
2022-10-29T04:45:19.102Z,13.70
2022-10-29T04:47:45.923Z,13.70
2022-10-29T04:50:12.527Z,13.70
2022-10-29T04:52:39.223Z,13.70
2022-10-29T04:55:06.173Z,13.70
2022-10-29T04:57:32.968Z,13.70
2022-10-29T05:05:55.306Z,13.70
2022-10-29T05:08:22.094Z,13.70
2022-10-29T05:10:50.242Z,13.70
2022-10-29T05:13:16.850Z,13.70
2022-10-29T05:15:43.602Z,13.70
2022-10-29T05:18:10.696Z,13.70
2022-10-29T05:20:37.526Z,13.70
2022-10-29T05:23:07.072Z,13.70
2022-10-29T05:25:36.936Z,13.70
2022-10-29T05:28:15.338Z,13.70
2022-10-29T05:30:43.847Z,13.80
2022-10-29T05:33:12.219Z,13.80
2022-10-29T05:35:39.918Z,13.80
2022-10-29T05:38:08.984Z,13.80
2022-10-29T05:40:35.614Z,13.90
2022-10-29T05:43:03.157Z,13.90
2022-10-29T05:45:29.836Z,13.90
2022-10-29T05:47:58.196Z,13.90
2022-10-29T05:50:25.508Z,13.90
2022-10-29T05:53:00.363Z,14.00
2022-10-29T05:55:27.505Z,13.90
2022-10-29T05:57:58.246Z,14.00
2022-10-29T06:00:27.721Z,14.00
2022-10-29T06:02:55.028Z,14.00
2022-10-29T06:05:24.846Z,14.00
2022-10-29T06:08:01.370Z,14.00
2022-10-29T06:10:29.580Z,14.00
2022-10-29T06:12:56.383Z,14.00
2022-10-29T06:15:23.281Z,14.00
2022-10-29T06:17:50.366Z,14.00
2022-10-29T06:20:20.881Z,14.10
2022-10-29T06:22:48.168Z,14.00
2022-10-29T06:25:14.818Z,14.10
2022-10-29T06:27:41.429Z,14.10
2022-10-29T06:30:08.725Z,14.10
2022-10-29T06:32:35.529Z,14.10
2022-10-29T06:35:02.210Z,14.10
2022-10-29T06:37:29.835Z,14.10
2022-10-29T06:39:56.504Z,14.20
2022-10-29T06:42:23.134Z,14.10
2022-10-29T06:44:49.840Z,14.20
2022-10-29T06:47:16.454Z,14.20
2022-10-29T06:49:43.192Z,14.20
2022-10-29T06:52:09.862Z,14.30
2022-10-29T06:54:36.633Z,14.40
2022-10-29T06:57:03.310Z,14.40
2022-10-29T06:59:30.120Z,14.40
2022-10-29T07:01:56.728Z,14.40
2022-10-29T07:04:23.468Z,14.50
2022-10-29T07:06:50.290Z,14.40
2022-10-29T07:09:17.072Z,14.50
2022-10-29T07:11:43.938Z,14.50
2022-10-29T07:14:10.638Z,14.60
2022-10-29T07:16:37.596Z,14.60
2022-10-29T07:19:04.773Z,14.60
2022-10-29T07:21:31.580Z,14.60
2022-10-29T07:23:58.306Z,14.70
2022-10-29T07:26:24.895Z,14.70
2022-10-29T07:28:54.328Z,14.70
2022-10-29T07:31:20.907Z,14.80
2022-10-29T07:33:47.525Z,14.80
2022-10-29T07:36:14.131Z,14.80
2022-10-29T07:38:40.895Z,14.90
2022-10-29T07:41:07.613Z,14.90
2022-10-29T07:43:34.223Z,14.90
2022-10-29T07:46:00.841Z,14.90
2022-10-29T07:48:27.541Z,15.00
2022-10-29T07:50:54.295Z,15.00
2022-10-29T07:53:21.002Z,15.10
2022-10-29T07:55:55.355Z,15.10
2022-10-29T07:58:22.529Z,15.10
2022-10-29T08:00:49.616Z,15.20
2022-10-29T08:03:16.771Z,15.20
2022-10-29T08:05:43.928Z,15.20
2022-10-29T08:08:10.547Z,15.30
2022-10-29T08:10:37.583Z,15.30
2022-10-29T08:13:09.407Z,15.30
2022-10-29T08:15:36.446Z,15.40
2022-10-29T08:18:09.237Z,15.50
2022-10-29T08:20:35.799Z,15.50
2022-10-29T08:23:02.398Z,15.60
2022-10-29T08:25:29.185Z,15.70
2022-10-29T08:28:03.337Z,15.70
2022-10-29T08:30:30.868Z,15.70
2022-10-29T08:32:58.379Z,15.80
2022-10-29T08:35:25.498Z,15.80
2022-10-29T08:37:52.215Z,15.90
2022-10-29T08:40:42.924Z,16.00
2022-10-29T08:43:21.642Z,16.10
2022-10-29T08:45:51.205Z,16.10
2022-10-29T08:48:29.917Z,16.20
2022-10-29T08:51:24.131Z,16.20
2022-10-29T08:54:10.458Z,16.30
2022-10-29T08:56:45.460Z,16.40
2022-10-29T08:59:24.251Z,16.50
2022-10-29T09:01:53.743Z,16.50
2022-10-29T09:04:38.149Z,16.60
2022-10-29T09:07:20.377Z,16.60
2022-10-29T09:09:59.762Z,16.70
2022-10-29T09:12:34.996Z,16.70
2022-10-29T09:15:39.296Z,16.80
2022-10-29T09:18:17.538Z,16.90
2022-10-29T09:20:57.781Z,16.90
2022-10-29T09:23:45.654Z,16.90
2022-10-29T09:26:29.750Z,17.00
2022-10-29T09:29:28.743Z,17.10
2022-10-29T09:32:01.547Z,17.10
2022-10-29T09:34:45.917Z,17.20
2022-10-29T09:37:20.092Z,17.20
2022-10-29T09:39:47.985Z,17.20
2022-10-29T09:42:23.174Z,17.30
2022-10-29T09:44:54.226Z,17.30
2022-10-29T09:47:26.078Z,17.40
2022-10-29T09:50:24.043Z,17.40
2022-10-29T09:52:50.659Z,17.40
2022-10-29T09:55:36.718Z,17.50
2022-10-29T09:58:03.371Z,17.60
2022-10-29T10:00:31.478Z,17.70
2022-10-29T10:03:12.513Z,17.70
2022-10-29T10:05:59.441Z,17.70
2022-10-29T10:08:26.575Z,17.80
2022-10-29T10:10:59.448Z,17.90
2022-10-29T10:13:32.470Z,17.90
2022-10-29T10:16:01.791Z,18.00
2022-10-29T10:18:40.963Z,18.10
2022-10-29T10:21:26.256Z,18.10
2022-10-29T10:23:54.695Z,18.20
2022-10-29T10:26:35.644Z,18.30
2022-10-29T10:29:16.099Z,18.30
2022-10-29T10:31:45.093Z,18.40
2022-10-29T10:34:34.892Z,18.50
2022-10-29T10:37:14.811Z,18.60
2022-10-29T10:39:44.228Z,18.60
2022-10-29T10:42:37.301Z,18.70
2022-10-29T10:45:27.551Z,18.80
2022-10-29T10:47:58.756Z,18.90
2022-10-29T10:50:33.132Z,19.00
2022-10-29T10:53:03.267Z,19.10
2022-10-29T10:55:37.926Z,19.20
2022-10-29T10:58:18.123Z,19.30
2022-10-29T11:00:54.771Z,19.40
2022-10-29T11:03:38.783Z,19.50
2022-10-29T11:06:15.339Z,19.60
2022-10-29T11:08:54.926Z,19.70
2022-10-29T11:11:36.389Z,19.80
2022-10-29T11:14:28.531Z,19.90
2022-10-29T11:16:58.137Z,20.00
2022-10-29T11:19:36.653Z,20.10
2022-10-29T11:22:21.735Z,20.20
2022-10-29T11:25:34.869Z,20.30
2022-10-29T11:28:17.803Z,20.40
2022-10-29T11:30:54.778Z,20.50
2022-10-29T11:33:58.228Z,20.50
2022-10-29T11:36:30.060Z,20.60
2022-10-29T11:39:08.861Z,20.70
2022-10-29T11:41:46.610Z,20.70
2022-10-29T11:44:14.878Z,20.80
2022-10-29T11:47:25.306Z,20.90
2022-10-29T11:50:32.651Z,21.00
2022-10-29T11:53:14.169Z,21.10
2022-10-29T11:56:13.302Z,21.20
2022-10-29T11:58:57.395Z,21.20
2022-10-29T12:02:01.813Z,21.40
2022-10-29T12:04:35.856Z,21.50
2022-10-29T12:07:22.759Z,21.70
2022-10-29T12:09:58.552Z,21.70
2022-10-29T12:13:04.141Z,21.90
2022-10-29T12:15:49.482Z,22.10
2022-10-29T12:18:16.330Z,22.10
2022-10-29T12:21:07.804Z,22.20
2022-10-29T12:23:50.444Z,22.30
2022-10-29T12:26:41.828Z,22.40
2022-10-29T12:29:32.693Z,22.50
2022-10-29T12:32:22.607Z,22.60
2022-10-29T12:34:58.243Z,22.70
2022-10-29T12:37:41.243Z,22.80
2022-10-29T12:40:24.771Z,22.80
2022-10-29T12:42:52.402Z,22.90
2022-10-29T12:45:48.058Z,23.00
2022-10-29T12:48:52.500Z,23.00
2022-10-29T12:51:41.239Z,23.10
2022-10-29T12:54:30.833Z,23.10
2022-10-29T12:57:12.512Z,23.20
2022-10-29T12:59:41.111Z,23.20
2022-10-29T13:02:37.114Z,23.30
2022-10-29T13:05:06.889Z,23.40
2022-10-29T13:07:34.270Z,23.40
2022-10-29T13:10:27.056Z,23.50
2022-10-29T13:12:59.885Z,23.60
2022-10-29T13:15:37.650Z,23.60
2022-10-29T13:18:41.785Z,23.60
2022-10-29T13:21:08.932Z,23.70
2022-10-29T13:23:37.561Z,23.70
2022-10-29T13:26:06.296Z,23.80
2022-10-29T13:28:36.027Z,23.80
2022-10-29T13:31:08.546Z,23.80
2022-10-29T13:33:38.258Z,23.80
2022-10-29T13:36:19.277Z,23.80
2022-10-29T13:39:07.349Z,23.80
2022-10-29T13:41:42.180Z,23.80
2022-10-29T13:44:21.712Z,23.70
2022-10-29T13:47:04.623Z,23.70
2022-10-29T13:49:46.284Z,23.70
2022-10-29T13:52:19.070Z,23.60
2022-10-29T13:54:50.616Z,23.60
2022-10-29T13:57:40.455Z,23.60
2022-10-29T14:00:14.245Z,23.60
2022-10-29T14:02:50.720Z,23.50
2022-10-29T14:05:20.330Z,23.50
2022-10-29T14:08:00.568Z,23.50
2022-10-29T14:10:35.373Z,23.50
2022-10-29T14:13:20.592Z,23.40
2022-10-29T14:16:05.491Z,23.40
2022-10-29T14:18:33.340Z,23.30
2022-10-29T14:21:05.821Z,23.30
2022-10-29T14:23:33.301Z,23.30
2022-10-29T14:26:02.967Z,23.30
2022-10-29T14:28:31.471Z,23.20
2022-10-29T14:31:07.047Z,23.20
2022-10-29T14:33:37.202Z,23.10
2022-10-29T14:36:27.538Z,23.10
2022-10-29T14:39:03.790Z,23.10
2022-10-29T14:41:32.075Z,23.10
2022-10-29T14:44:07.234Z,23.00
2022-10-29T14:46:36.766Z,23.00
2022-10-29T14:49:14.276Z,22.90
2022-10-29T14:51:49.964Z,22.90
2022-10-29T14:54:35.436Z,22.90
2022-10-29T14:57:07.767Z,22.80
2022-10-29T14:59:36.017Z,22.80
2022-10-29T15:02:36.411Z,22.70
2022-10-29T15:05:03.145Z,22.70
2022-10-29T15:07:36.114Z,22.60
2022-10-29T15:10:08.785Z,22.60
2022-10-29T15:12:37.922Z,22.60
2022-10-29T15:15:10.034Z,22.50
2022-10-29T15:17:47.347Z,22.50
2022-10-29T15:20:27.712Z,22.40
2022-10-29T15:22:57.190Z,22.40
2022-10-29T15:25:36.754Z,22.30
2022-10-29T15:28:03.968Z,22.30
2022-10-29T15:30:35.823Z,22.20
2022-10-29T15:33:08.708Z,22.20
2022-10-29T15:35:42.970Z,22.10
2022-10-29T15:38:35.400Z,22.10
2022-10-29T15:41:07.998Z,22.00
2022-10-29T15:43:48.179Z,22.00
2022-10-29T15:46:24.448Z,21.90
2022-10-29T15:48:51.948Z,21.90
2022-10-29T15:51:26.374Z,21.80
2022-10-29T15:53:55.765Z,21.70
2022-10-29T15:56:22.916Z,21.70
2022-10-29T15:58:49.677Z,21.70
2022-10-29T16:01:17.495Z,21.60
2022-10-29T16:03:44.294Z,21.60
2022-10-29T16:06:12.080Z,21.50
2022-10-29T16:08:59.751Z,21.50
2022-10-29T16:11:27.545Z,21.50
2022-10-29T16:13:55.524Z,21.40
2022-10-29T16:16:24.683Z,21.30
2022-10-29T16:18:55.816Z,21.30
2022-10-29T16:21:25.208Z,21.20
2022-10-29T16:23:52.515Z,21.20
2022-10-29T16:26:21.972Z,21.20
2022-10-29T16:28:48.944Z,21.10
2022-10-29T16:31:20.412Z,21.10
2022-10-29T16:33:48.400Z,21.10
2022-10-29T16:36:15.388Z,21.00
2022-10-29T16:38:42.513Z,20.90
2022-10-29T16:41:15.680Z,20.90
2022-10-29T16:43:42.620Z,20.80
2022-10-29T16:46:09.655Z,20.80
2022-10-29T16:48:36.529Z,20.80
2022-10-29T16:51:03.599Z,20.70
2022-10-29T16:53:30.618Z,20.70
2022-10-29T16:55:57.658Z,20.70
2022-10-29T16:58:24.546Z,20.60
2022-10-29T17:00:51.313Z,20.60
2022-10-29T17:03:18.493Z,20.60
2022-10-29T17:05:46.207Z,20.50
2022-10-29T17:08:13.577Z,20.40
2022-10-29T17:10:40.338Z,20.40
2022-10-29T17:13:08.926Z,20.40
2022-10-29T17:15:38.276Z,20.30
2022-10-29T17:18:07.425Z,20.30
2022-10-29T17:20:34.065Z,20.20
2022-10-29T17:23:00.611Z,20.20
2022-10-29T17:25:27.174Z,20.10
2022-10-29T17:27:53.991Z,20.10
2022-10-29T17:30:20.727Z,20.10
2022-10-29T17:32:47.356Z,20.00
2022-10-29T17:35:13.943Z,20.00
2022-10-29T17:37:40.498Z,20.00
2022-10-29T17:40:08.458Z,19.90
2022-10-29T17:42:35.526Z,19.90
2022-10-29T17:45:02.322Z,19.80
2022-10-29T17:47:29.824Z,19.70
2022-10-29T17:49:56.530Z,19.70
2022-10-29T17:52:23.147Z,19.70
2022-10-29T17:54:49.731Z,19.60
2022-10-29T17:57:16.465Z,19.60
2022-10-29T17:59:43.059Z,19.60
2022-10-29T18:02:11.311Z,19.50
2022-10-29T18:04:38.165Z,19.50
2022-10-29T18:07:04.759Z,19.40
2022-10-29T18:09:31.338Z,19.40
2022-10-29T18:11:57.932Z,19.30
2022-10-29T18:14:24.601Z,19.30
2022-10-29T18:16:51.223Z,19.20
2022-10-29T18:19:20.975Z,19.20
2022-10-29T18:21:47.591Z,19.20
2022-10-29T18:24:14.218Z,19.10
2022-10-29T18:26:40.862Z,19.10
2022-10-29T18:29:10.528Z,19.00
2022-10-29T18:31:38.006Z,19.00
2022-10-29T18:34:07.017Z,18.90
2022-10-29T18:36:35.453Z,18.90
2022-10-29T18:39:03.917Z,18.80
2022-10-29T18:41:31.053Z,18.80
2022-10-29T18:43:58.345Z,18.70
2022-10-29T18:46:25.198Z,18.70
2022-10-29T18:48:52.692Z,18.70
2022-10-29T18:51:19.331Z,18.60
2022-10-29T18:53:46.631Z,18.60
2022-10-29T18:56:16.564Z,18.60
2022-10-29T18:58:43.418Z,18.50
2022-10-29T19:01:18.331Z,18.50
2022-10-29T19:03:54.453Z,18.50
2022-10-29T19:06:22.687Z,18.40
2022-10-29T19:08:49.727Z,18.40
2022-10-29T19:11:27.784Z,18.30
2022-10-29T19:14:03.093Z,18.30
2022-10-29T19:16:31.134Z,18.20
2022-10-29T19:19:10.512Z,18.20
2022-10-29T19:21:38.214Z,18.20
2022-10-29T19:24:05.649Z,18.10
2022-10-29T19:26:34.327Z,18.10
2022-10-29T19:29:03.187Z,18.10
2022-10-29T19:31:31.756Z,18.10
2022-10-29T19:34:01.463Z,18.10
2022-10-29T19:36:29.693Z,18.10
2022-10-29T19:38:56.733Z,18.00
2022-10-29T19:41:23.744Z,18.00
2022-10-29T19:43:50.348Z,17.90
2022-10-29T19:46:19.332Z,17.90
2022-10-29T19:48:50.676Z,17.90
2022-10-29T19:51:20.580Z,17.80
2022-10-29T19:53:47.996Z,17.80
2022-10-29T19:56:16.793Z,17.80
2022-10-29T19:58:43.715Z,17.80
2022-10-29T20:01:16.082Z,17.80
2022-10-29T20:03:43.802Z,17.70
2022-10-29T20:06:11.188Z,17.70
2022-10-29T20:08:38.095Z,17.70
2022-10-29T20:11:05.089Z,17.70
2022-10-29T20:13:31.812Z,17.60
2022-10-29T20:15:58.485Z,17.70
2022-10-29T20:18:25.229Z,17.60
2022-10-29T20:20:56.571Z,17.60
2022-10-29T20:23:25.361Z,17.60
2022-10-29T20:25:52.244Z,17.60
2022-10-29T20:28:19.142Z,17.50
2022-10-29T20:30:45.889Z,17.50
2022-10-29T20:33:12.838Z,17.50
2022-10-29T20:35:39.549Z,17.50
2022-10-29T20:38:06.191Z,17.40
2022-10-29T20:40:32.798Z,17.40
2022-10-29T20:42:59.913Z,17.40
2022-10-29T20:45:26.655Z,17.40
2022-10-29T20:47:53.355Z,17.30
2022-10-29T20:50:20.170Z,17.30
2022-10-29T20:52:48.795Z,17.30
2022-10-29T20:55:16.032Z,17.20
2022-10-29T20:57:42.927Z,17.20
2022-10-29T21:00:10.477Z,17.20
2022-10-29T21:02:37.281Z,17.10
2022-10-29T21:05:04.202Z,17.10
2022-10-29T21:07:30.861Z,17.10
2022-10-29T21:09:57.451Z,17.10
2022-10-29T21:12:24.079Z,17.10
2022-10-29T21:14:50.779Z,17.00
2022-10-29T21:17:17.383Z,17.00
2022-10-29T21:19:44.032Z,16.90
2022-10-29T21:22:10.804Z,16.90
2022-10-29T21:24:39.215Z,16.90
2022-10-29T21:27:09.878Z,16.90
2022-10-29T21:29:36.793Z,16.90
2022-10-29T21:32:03.457Z,16.80
2022-10-29T21:34:30.039Z,16.80
2022-10-29T21:36:56.610Z,16.80
2022-10-29T21:39:23.401Z,16.70
2022-10-29T21:41:49.994Z,16.70
2022-10-29T21:44:16.838Z,16.70
2022-10-29T21:46:43.608Z,16.70
2022-10-29T21:49:10.225Z,16.70
2022-10-29T21:51:36.967Z,16.60
2022-10-29T21:54:04.080Z,16.60
2022-10-29T21:56:30.723Z,16.60
2022-10-29T21:58:57.440Z,16.60
2022-10-29T22:01:24.122Z,16.50
2022-10-29T22:03:50.884Z,16.40
2022-10-29T22:06:19.775Z,16.40
2022-10-29T22:08:47.916Z,16.40
2022-10-29T22:11:15.435Z,16.40
2022-10-29T22:13:42.071Z,16.30
2022-10-29T22:16:10.035Z,16.30
2022-10-29T22:18:37.304Z,16.30
2022-10-29T22:21:13.244Z,16.20
2022-10-29T22:23:44.910Z,16.20
2022-10-29T22:26:12.403Z,16.20
2022-10-29T22:28:39.041Z,16.20
2022-10-29T22:31:06.046Z,16.20
2022-10-29T22:33:33.879Z,16.10
2022-10-29T22:36:12.231Z,16.10
2022-10-29T22:38:39.655Z,16.10
2022-10-29T22:41:11.709Z,16.10
2022-10-29T22:43:38.854Z,16.10
2022-10-29T22:46:07.627Z,16.10
2022-10-29T22:48:34.927Z,16.00
2022-10-29T22:51:09.554Z,16.00
2022-10-29T22:53:36.137Z,15.90
2022-10-29T22:56:03.566Z,16.00
2022-10-29T22:58:30.190Z,15.90
2022-10-29T23:01:11.965Z,15.90
2022-10-29T23:03:40.534Z,15.90
2022-10-29T23:06:09.555Z,15.80
2022-10-29T23:08:36.439Z,15.80
2022-10-29T23:11:07.957Z,15.80
2022-10-29T23:13:34.584Z,15.80
2022-10-29T23:16:01.240Z,15.80
2022-10-29T23:18:27.810Z,15.70
2022-10-29T23:21:01.862Z,15.70
2022-10-29T23:23:28.853Z,15.70
2022-10-29T23:26:00.410Z,15.70
2022-10-29T23:28:34.948Z,15.70
2022-10-29T23:31:03.019Z,15.70
2022-10-29T23:33:31.167Z,15.60
2022-10-29T23:36:08.033Z,15.60
2022-10-29T23:38:35.227Z,15.60
2022-10-29T23:41:02.118Z,15.60
2022-10-29T23:43:28.766Z,15.60
2022-10-29T23:45:55.406Z,15.60
2022-10-29T23:48:22.299Z,15.60
2022-10-29T23:50:48.916Z,15.60
2022-10-29T23:53:16.090Z,15.50
2022-10-29T23:55:43.871Z,15.50
2022-10-29T23:58:11.527Z,15.50
